sensor_id;sensor_type;location;lat;lon;timestamp;P1;durP1;ratioP1;P2;durP2;ratioP2
11185;SDS011;5649;52.422;13.754;2023-03-20T00:01:12;10.67;;;4.80;;
11185;SDS011;5649;52.422;13.754;2023-03-20T00:03:38;6.87;;;4.27;;
11185;SDS011;5649;52.422;13.754;2023-03-20T00:06:04;6.10;;;4.07;;
11185;SDS011;5649;52.422;13.754;2023-03-20T00:08:30;6.03;;;4.50;;
11185;SDS011;5649;52.422;13.754;2023-03-20T00:10:57;5.63;;;4.50;;
11185;SDS011;5649;52.422;13.754;2023-03-20T00:13:24;10.93;;;4.60;;
11185;SDS011;5649;52.422;13.754;2023-03-20T00:15:51;6.30;;;4.30;;
11185;SDS011;5649;52.422;13.754;2023-03-20T00:18:18;5.87;;;4.57;;
11185;SDS011;5649;52.422;13.754;2023-03-20T00:20:47;6.90;;;4.00;;
11185;SDS011;5649;52.422;13.754;2023-03-20T00:23:13;7.73;;;3.60;;
11185;SDS011;5649;52.422;13.754;2023-03-20T00:25:40;7.60;;;4.80;;
11185;SDS011;5649;52.422;13.754;2023-03-20T00:30:52;7.70;;;4.53;;
11185;SDS011;5649;52.422;13.754;2023-03-20T00:33:18;12.23;;;4.73;;
11185;SDS011;5649;52.422;13.754;2023-03-20T00:35:44;12.20;;;5.20;;
11185;SDS011;5649;52.422;13.754;2023-03-20T00:38:10;5.90;;;4.23;;
11185;SDS011;5649;52.422;13.754;2023-03-20T00:40:36;21.57;;;4.67;;
11185;SDS011;5649;52.422;13.754;2023-03-20T00:43:02;5.60;;;3.93;;
11185;SDS011;5649;52.422;13.754;2023-03-20T00:45:29;4.63;;;3.60;;
11185;SDS011;5649;52.422;13.754;2023-03-20T00:47:56;5.93;;;3.43;;
11185;SDS011;5649;52.422;13.754;2023-03-20T00:50:24;5.23;;;3.50;;
11185;SDS011;5649;52.422;13.754;2023-03-20T00:52:50;9.10;;;5.40;;
11185;SDS011;5649;52.422;13.754;2023-03-20T00:55:17;10.10;;;4.50;;
11185;SDS011;5649;52.422;13.754;2023-03-20T01:00:19;5.83;;;4.43;;
11185;SDS011;5649;52.422;13.754;2023-03-20T01:02:45;11.70;;;5.23;;
11185;SDS011;5649;52.422;13.754;2023-03-20T01:05:12;6.03;;;3.90;;
11185;SDS011;5649;52.422;13.754;2023-03-20T01:07:38;6.60;;;4.63;;
11185;SDS011;5649;52.422;13.754;2023-03-20T01:10:04;5.47;;;4.00;;
11185;SDS011;5649;52.422;13.754;2023-03-20T01:12:31;10.07;;;4.77;;
11185;SDS011;5649;52.422;13.754;2023-03-20T01:14:57;5.83;;;4.20;;
11185;SDS011;5649;52.422;13.754;2023-03-20T01:17:24;5.17;;;3.50;;
11185;SDS011;5649;52.422;13.754;2023-03-20T01:19:51;8.90;;;5.10;;
11185;SDS011;5649;52.422;13.754;2023-03-20T01:22:17;8.80;;;4.50;;
11185;SDS011;5649;52.422;13.754;2023-03-20T01:24:43;8.53;;;4.67;;
11185;SDS011;5649;52.422;13.754;2023-03-20T01:27:13;7.27;;;4.00;;
11185;SDS011;5649;52.422;13.754;2023-03-20T01:29:39;8.53;;;3.90;;
11185;SDS011;5649;52.422;13.754;2023-03-20T01:32:16;11.60;;;5.47;;
11185;SDS011;5649;52.422;13.754;2023-03-20T01:34:42;9.17;;;4.93;;
11185;SDS011;5649;52.422;13.754;2023-03-20T01:37:09;13.63;;;5.00;;
11185;SDS011;5649;52.422;13.754;2023-03-20T01:39:37;7.47;;;4.60;;
11185;SDS011;5649;52.422;13.754;2023-03-20T01:42:03;11.00;;;4.80;;
11185;SDS011;5649;52.422;13.754;2023-03-20T01:44:32;9.83;;;4.63;;
11185;SDS011;5649;52.422;13.754;2023-03-20T01:47:00;5.20;;;3.73;;
11185;SDS011;5649;52.422;13.754;2023-03-20T01:51:53;11.90;;;4.43;;
11185;SDS011;5649;52.422;13.754;2023-03-20T01:54:22;5.03;;;3.93;;
11185;SDS011;5649;52.422;13.754;2023-03-20T01:56:50;6.87;;;4.50;;
11185;SDS011;5649;52.422;13.754;2023-03-20T01:59:19;5.37;;;4.33;;
11185;SDS011;5649;52.422;13.754;2023-03-20T02:01:48;11.40;;;4.17;;
11185;SDS011;5649;52.422;13.754;2023-03-20T02:04:14;5.00;;;4.07;;
11185;SDS011;5649;52.422;13.754;2023-03-20T02:06:41;6.50;;;4.10;;
11185;SDS011;5649;52.422;13.754;2023-03-20T02:09:09;11.17;;;4.93;;
11185;SDS011;5649;52.422;13.754;2023-03-20T02:11:35;7.07;;;4.23;;
11185;SDS011;5649;52.422;13.754;2023-03-20T02:14:01;12.70;;;4.73;;
11185;SDS011;5649;52.422;13.754;2023-03-20T02:16:28;5.03;;;3.83;;
11185;SDS011;5649;52.422;13.754;2023-03-20T02:18:55;7.60;;;4.27;;
11185;SDS011;5649;52.422;13.754;2023-03-20T02:29:27;6.37;;;4.10;;
11185;SDS011;5649;52.422;13.754;2023-03-20T02:37:23;8.40;;;4.17;;
11185;SDS011;5649;52.422;13.754;2023-03-20T02:39:58;8.40;;;3.97;;
11185;SDS011;5649;52.422;13.754;2023-03-20T02:50:35;5.17;;;3.83;;
11185;SDS011;5649;52.422;13.754;2023-03-20T02:53:12;7.70;;;3.57;;
11185;SDS011;5649;52.422;13.754;2023-03-20T02:55:47;5.13;;;3.47;;
11185;SDS011;5649;52.422;13.754;2023-03-20T03:03:13;7.83;;;3.33;;
11185;SDS011;5649;52.422;13.754;2023-03-20T03:05:47;3.83;;;3.00;;
11185;SDS011;5649;52.422;13.754;2023-03-20T03:08:15;5.33;;;3.77;;
11185;SDS011;5649;52.422;13.754;2023-03-20T03:10:43;4.57;;;3.70;;
11185;SDS011;5649;52.422;13.754;2023-03-20T03:13:12;5.50;;;3.50;;
11185;SDS011;5649;52.422;13.754;2023-03-20T03:15:40;9.80;;;3.37;;
11185;SDS011;5649;52.422;13.754;2023-03-20T03:18:10;6.63;;;3.00;;
11185;SDS011;5649;52.422;13.754;2023-03-20T03:20:38;13.83;;;3.67;;
11185;SDS011;5649;52.422;13.754;2023-03-20T03:23:05;4.33;;;3.33;;
11185;SDS011;5649;52.422;13.754;2023-03-20T03:25:32;5.90;;;3.07;;
11185;SDS011;5649;52.422;13.754;2023-03-20T03:28:02;5.50;;;3.60;;
11185;SDS011;5649;52.422;13.754;2023-03-20T03:30:30;8.23;;;3.40;;
11185;SDS011;5649;52.422;13.754;2023-03-20T03:33:20;6.33;;;3.97;;
11185;SDS011;5649;52.422;13.754;2023-03-20T03:35:44;5.13;;;2.90;;
11185;SDS011;5649;52.422;13.754;2023-03-20T03:40:43;8.20;;;3.03;;
11185;SDS011;5649;52.422;13.754;2023-03-20T03:43:26;6.10;;;3.30;;
11185;SDS011;5649;52.422;13.754;2023-03-20T03:46:06;4.90;;;2.90;;
11185;SDS011;5649;52.422;13.754;2023-03-20T03:48:35;4.20;;;3.80;;
11185;SDS011;5649;52.422;13.754;2023-03-20T03:51:04;7.70;;;4.00;;
11185;SDS011;5649;52.422;13.754;2023-03-20T03:53:33;5.00;;;3.80;;
11185;SDS011;5649;52.422;13.754;2023-03-20T03:56:01;6.53;;;3.40;;
11185;SDS011;5649;52.422;13.754;2023-03-20T03:58:36;13.90;;;3.63;;
11185;SDS011;5649;52.422;13.754;2023-03-20T04:01:06;10.07;;;3.93;;
11185;SDS011;5649;52.422;13.754;2023-03-20T04:03:37;5.40;;;4.10;;
11185;SDS011;5649;52.422;13.754;2023-03-20T04:06:04;6.83;;;4.00;;
11185;SDS011;5649;52.422;13.754;2023-03-20T04:08:32;5.80;;;3.80;;
11185;SDS011;5649;52.422;13.754;2023-03-20T04:10:58;7.77;;;3.37;;
11185;SDS011;5649;52.422;13.754;2023-03-20T04:13:24;6.23;;;3.80;;
11185;SDS011;5649;52.422;13.754;2023-03-20T04:15:50;4.40;;;3.40;;
11185;SDS011;5649;52.422;13.754;2023-03-20T04:18:17;4.97;;;3.30;;
11185;SDS011;5649;52.422;13.754;2023-03-20T04:20:44;4.67;;;3.17;;
11185;SDS011;5649;52.422;13.754;2023-03-20T04:23:10;5.43;;;3.77;;
11185;SDS011;5649;52.422;13.754;2023-03-20T04:25:36;5.23;;;3.83;;
11185;SDS011;5649;52.422;13.754;2023-03-20T04:28:02;3.73;;;3.30;;
11185;SDS011;5649;52.422;13.754;2023-03-20T04:30:29;4.70;;;3.77;;
11185;SDS011;5649;52.422;13.754;2023-03-20T04:32:55;5.93;;;3.20;;
11185;SDS011;5649;52.422;13.754;2023-03-20T04:35:22;5.13;;;4.00;;
11185;SDS011;5649;52.422;13.754;2023-03-20T04:37:48;8.40;;;4.47;;
11185;SDS011;5649;52.422;13.754;2023-03-20T04:40:14;6.57;;;4.17;;
11185;SDS011;5649;52.422;13.754;2023-03-20T04:42:40;19.40;;;10.97;;
11185;SDS011;5649;52.422;13.754;2023-03-20T04:45:06;22.97;;;6.47;;
11185;SDS011;5649;52.422;13.754;2023-03-20T04:47:33;6.90;;;4.23;;
11185;SDS011;5649;52.422;13.754;2023-03-20T04:49:59;4.57;;;3.83;;
11185;SDS011;5649;52.422;13.754;2023-03-20T04:52:25;4.13;;;3.73;;
11185;SDS011;5649;52.422;13.754;2023-03-20T04:54:51;7.00;;;3.50;;
11185;SDS011;5649;52.422;13.754;2023-03-20T04:57:17;3.63;;;3.30;;
11185;SDS011;5649;52.422;13.754;2023-03-20T04:59:43;5.90;;;3.47;;
11185;SDS011;5649;52.422;13.754;2023-03-20T05:02:09;5.07;;;3.30;;
11185;SDS011;5649;52.422;13.754;2023-03-20T05:04:39;5.70;;;3.50;;
11185;SDS011;5649;52.422;13.754;2023-03-20T05:07:05;8.90;;;3.97;;
11185;SDS011;5649;52.422;13.754;2023-03-20T05:09:31;5.50;;;4.13;;
11185;SDS011;5649;52.422;13.754;2023-03-20T05:11:57;12.90;;;4.17;;
11185;SDS011;5649;52.422;13.754;2023-03-20T05:14:23;5.10;;;3.53;;
11185;SDS011;5649;52.422;13.754;2023-03-20T05:16:49;3.50;;;3.10;;
11185;SDS011;5649;52.422;13.754;2023-03-20T05:19:15;7.13;;;3.97;;
11185;SDS011;5649;52.422;13.754;2023-03-20T05:21:42;8.60;;;4.13;;
11185;SDS011;5649;52.422;13.754;2023-03-20T05:24:08;12.10;;;3.70;;
11185;SDS011;5649;52.422;13.754;2023-03-20T05:26:34;6.33;;;3.20;;
11185;SDS011;5649;52.422;13.754;2023-03-20T05:29:00;5.67;;;3.77;;
11185;SDS011;5649;52.422;13.754;2023-03-20T05:31:26;5.87;;;3.30;;
11185;SDS011;5649;52.422;13.754;2023-03-20T05:33:52;6.90;;;4.40;;
11185;SDS011;5649;52.422;13.754;2023-03-20T05:36:18;10.67;;;4.30;;
11185;SDS011;5649;52.422;13.754;2023-03-20T05:38:45;16.43;;;3.60;;
11185;SDS011;5649;52.422;13.754;2023-03-20T05:41:11;4.90;;;3.40;;
11185;SDS011;5649;52.422;13.754;2023-03-20T05:43:37;5.73;;;3.50;;
11185;SDS011;5649;52.422;13.754;2023-03-20T05:46:03;4.77;;;3.67;;
11185;SDS011;5649;52.422;13.754;2023-03-20T05:48:29;4.63;;;3.63;;
11185;SDS011;5649;52.422;13.754;2023-03-20T05:50:55;5.47;;;3.33;;
11185;SDS011;5649;52.422;13.754;2023-03-20T05:53:21;4.00;;;3.60;;
11185;SDS011;5649;52.422;13.754;2023-03-20T05:55:47;18.93;;;4.50;;
11185;SDS011;5649;52.422;13.754;2023-03-20T05:58:14;6.90;;;3.93;;
11185;SDS011;5649;52.422;13.754;2023-03-20T06:00:40;16.30;;;4.40;;
11185;SDS011;5649;52.422;13.754;2023-03-20T06:03:06;7.73;;;4.27;;
11185;SDS011;5649;52.422;13.754;2023-03-20T06:05:32;6.63;;;4.47;;
11185;SDS011;5649;52.422;13.754;2023-03-20T06:07:59;18.20;;;4.53;;
11185;SDS011;5649;52.422;13.754;2023-03-20T06:10:25;12.77;;;4.00;;
11185;SDS011;5649;52.422;13.754;2023-03-20T06:12:52;7.60;;;4.13;;
11185;SDS011;5649;52.422;13.754;2023-03-20T06:15:18;5.83;;;3.93;;
11185;SDS011;5649;52.422;13.754;2023-03-20T06:17:44;7.17;;;3.70;;
11185;SDS011;5649;52.422;13.754;2023-03-20T06:20:10;11.50;;;5.97;;
11185;SDS011;5649;52.422;13.754;2023-03-20T06:22:36;7.03;;;4.17;;
11185;SDS011;5649;52.422;13.754;2023-03-20T06:25:03;10.17;;;4.53;;
11185;SDS011;5649;52.422;13.754;2023-03-20T06:27:29;8.83;;;3.33;;
11185;SDS011;5649;52.422;13.754;2023-03-20T06:29:55;21.43;;;3.67;;
11185;SDS011;5649;52.422;13.754;2023-03-20T06:32:21;6.30;;;4.20;;
11185;SDS011;5649;52.422;13.754;2023-03-20T06:34:47;7.50;;;3.27;;
11185;SDS011;5649;52.422;13.754;2023-03-20T06:37:13;7.73;;;4.00;;
11185;SDS011;5649;52.422;13.754;2023-03-20T06:39:40;7.17;;;3.43;;
11185;SDS011;5649;52.422;13.754;2023-03-20T06:42:06;4.20;;;3.10;;
11185;SDS011;5649;52.422;13.754;2023-03-20T06:44:32;6.47;;;3.07;;
11185;SDS011;5649;52.422;13.754;2023-03-20T06:46:58;5.30;;;3.80;;
11185;SDS011;5649;52.422;13.754;2023-03-20T06:49:24;17.23;;;5.47;;
11185;SDS011;5649;52.422;13.754;2023-03-20T06:51:51;4.87;;;3.50;;
11185;SDS011;5649;52.422;13.754;2023-03-20T06:54:17;8.40;;;3.77;;
11185;SDS011;5649;52.422;13.754;2023-03-20T06:56:43;4.60;;;3.90;;
11185;SDS011;5649;52.422;13.754;2023-03-20T06:59:10;9.73;;;4.10;;
11185;SDS011;5649;52.422;13.754;2023-03-20T07:01:37;7.07;;;3.87;;
11185;SDS011;5649;52.422;13.754;2023-03-20T07:04:03;5.37;;;3.47;;
11185;SDS011;5649;52.422;13.754;2023-03-20T07:06:30;9.50;;;4.03;;
11185;SDS011;5649;52.422;13.754;2023-03-20T07:08:56;7.60;;;3.30;;
11185;SDS011;5649;52.422;13.754;2023-03-20T07:11:22;5.03;;;4.23;;
11185;SDS011;5649;52.422;13.754;2023-03-20T07:13:48;7.30;;;4.73;;
11185;SDS011;5649;52.422;13.754;2023-03-20T07:16:14;8.20;;;3.97;;
11185;SDS011;5649;52.422;13.754;2023-03-20T07:18:41;7.13;;;4.27;;
11185;SDS011;5649;52.422;13.754;2023-03-20T07:21:07;7.60;;;5.10;;
11185;SDS011;5649;52.422;13.754;2023-03-20T07:23:33;14.60;;;5.33;;
11185;SDS011;5649;52.422;13.754;2023-03-20T07:26:00;8.73;;;5.07;;
11185;SDS011;5649;52.422;13.754;2023-03-20T07:28:26;13.10;;;7.00;;
11185;SDS011;5649;52.422;13.754;2023-03-20T07:30:52;11.80;;;7.47;;
11185;SDS011;5649;52.422;13.754;2023-03-20T07:33:18;19.13;;;9.40;;
11185;SDS011;5649;52.422;13.754;2023-03-20T07:35:45;13.80;;;7.97;;
11185;SDS011;5649;52.422;13.754;2023-03-20T07:38:11;21.83;;;9.77;;
11185;SDS011;5649;52.422;13.754;2023-03-20T07:40:37;18.10;;;10.70;;
11185;SDS011;5649;52.422;13.754;2023-03-20T07:43:03;19.13;;;10.10;;
11185;SDS011;5649;52.422;13.754;2023-03-20T07:45:29;22.87;;;9.80;;
11185;SDS011;5649;52.422;13.754;2023-03-20T07:47:55;14.60;;;8.87;;
11185;SDS011;5649;52.422;13.754;2023-03-20T07:50:21;22.07;;;10.20;;
11185;SDS011;5649;52.422;13.754;2023-03-20T07:52:47;19.60;;;10.80;;
11185;SDS011;5649;52.422;13.754;2023-03-20T07:55:14;27.47;;;11.97;;
11185;SDS011;5649;52.422;13.754;2023-03-20T07:57:40;17.80;;;10.17;;
11185;SDS011;5649;52.422;13.754;2023-03-20T08:00:07;13.30;;;8.90;;
11185;SDS011;5649;52.422;13.754;2023-03-20T08:02:33;19.97;;;11.37;;
11185;SDS011;5649;52.422;13.754;2023-03-20T08:04:59;21.87;;;10.03;;
11185;SDS011;5649;52.422;13.754;2023-03-20T08:07:25;22.87;;;11.33;;
11185;SDS011;5649;52.422;13.754;2023-03-20T08:09:53;25.90;;;11.93;;
11185;SDS011;5649;52.422;13.754;2023-03-20T08:12:19;31.07;;;13.17;;
11185;SDS011;5649;52.422;13.754;2023-03-20T08:14:45;24.37;;;14.07;;
11185;SDS011;5649;52.422;13.754;2023-03-20T08:17:12;25.57;;;12.03;;
11185;SDS011;5649;52.422;13.754;2023-03-20T08:19:38;26.53;;;14.67;;
11185;SDS011;5649;52.422;13.754;2023-03-20T08:22:04;24.13;;;11.83;;
11185;SDS011;5649;52.422;13.754;2023-03-20T08:24:31;55.73;;;15.83;;
11185;SDS011;5649;52.422;13.754;2023-03-20T08:26:57;30.40;;;13.97;;
11185;SDS011;5649;52.422;13.754;2023-03-20T08:29:23;24.53;;;13.67;;
11185;SDS011;5649;52.422;13.754;2023-03-20T08:31:49;29.07;;;13.43;;
11185;SDS011;5649;52.422;13.754;2023-03-20T08:34:15;27.10;;;13.90;;
11185;SDS011;5649;52.422;13.754;2023-03-20T08:36:41;26.67;;;12.63;;
11185;SDS011;5649;52.422;13.754;2023-03-20T08:39:07;24.50;;;13.90;;
11185;SDS011;5649;52.422;13.754;2023-03-20T08:41:35;27.37;;;12.60;;
11185;SDS011;5649;52.422;13.754;2023-03-20T08:44:03;27.63;;;12.30;;
11185;SDS011;5649;52.422;13.754;2023-03-20T08:46:29;38.07;;;13.97;;
11185;SDS011;5649;52.422;13.754;2023-03-20T08:48:56;26.77;;;13.77;;
11185;SDS011;5649;52.422;13.754;2023-03-20T08:51:23;34.33;;;12.83;;
11185;SDS011;5649;52.422;13.754;2023-03-20T08:53:49;27.87;;;12.40;;
11185;SDS011;5649;52.422;13.754;2023-03-20T08:56:15;32.60;;;12.30;;
11185;SDS011;5649;52.422;13.754;2023-03-20T08:58:41;22.90;;;11.20;;
11185;SDS011;5649;52.422;13.754;2023-03-20T09:01:07;20.07;;;10.57;;
11185;SDS011;5649;52.422;13.754;2023-03-20T09:03:34;37.07;;;9.90;;
11185;SDS011;5649;52.422;13.754;2023-03-20T09:06:03;27.30;;;11.83;;
11185;SDS011;5649;52.422;13.754;2023-03-20T09:08:29;22.60;;;9.97;;
11185;SDS011;5649;52.422;13.754;2023-03-20T09:10:56;22.57;;;10.47;;
11185;SDS011;5649;52.422;13.754;2023-03-20T09:13:22;26.20;;;11.53;;
11185;SDS011;5649;52.422;13.754;2023-03-20T09:15:49;20.77;;;11.00;;
11185;SDS011;5649;52.422;13.754;2023-03-20T09:18:15;22.10;;;11.50;;
11185;SDS011;5649;52.422;13.754;2023-03-20T09:20:41;24.27;;;12.00;;
11185;SDS011;5649;52.422;13.754;2023-03-20T09:23:07;24.93;;;10.67;;
11185;SDS011;5649;52.422;13.754;2023-03-20T09:25:33;23.60;;;11.20;;
11185;SDS011;5649;52.422;13.754;2023-03-20T09:27:59;35.57;;;13.20;;
11185;SDS011;5649;52.422;13.754;2023-03-20T09:30:25;28.43;;;12.67;;
11185;SDS011;5649;52.422;13.754;2023-03-20T09:32:51;32.53;;;13.50;;
11185;SDS011;5649;52.422;13.754;2023-03-20T09:35:18;27.90;;;12.70;;
11185;SDS011;5649;52.422;13.754;2023-03-20T09:37:44;32.87;;;11.20;;
11185;SDS011;5649;52.422;13.754;2023-03-20T09:40:17;31.40;;;12.47;;
11185;SDS011;5649;52.422;13.754;2023-03-20T09:50:25;20.10;;;8.70;;
11185;SDS011;5649;52.422;13.754;2023-03-20T09:52:55;17.73;;;7.80;;
11185;SDS011;5649;52.422;13.754;2023-03-20T09:55:24;15.60;;;7.87;;
11185;SDS011;5649;52.422;13.754;2023-03-20T09:57:53;18.50;;;7.93;;
11185;SDS011;5649;52.422;13.754;2023-03-20T10:00:23;14.30;;;7.47;;
11185;SDS011;5649;52.422;13.754;2023-03-20T10:05:38;26.03;;;12.03;;
11185;SDS011;5649;52.422;13.754;2023-03-20T10:08:02;25.47;;;7.27;;
11185;SDS011;5649;52.422;13.754;2023-03-20T10:10:41;14.23;;;7.03;;
11185;SDS011;5649;52.422;13.754;2023-03-20T10:18:39;13.33;;;7.10;;
11185;SDS011;5649;52.422;13.754;2023-03-20T10:21:14;19.13;;;6.77;;
11185;SDS011;5649;52.422;13.754;2023-03-20T10:26:16;15.37;;;6.57;;
11185;SDS011;5649;52.422;13.754;2023-03-20T10:31:56;15.17;;;7.10;;
11185;SDS011;5649;52.422;13.754;2023-03-20T10:38:59;16.50;;;6.13;;
11185;SDS011;5649;52.422;13.754;2023-03-20T10:41:28;20.70;;;6.47;;
11185;SDS011;5649;52.422;13.754;2023-03-20T10:43:56;11.90;;;5.53;;
11185;SDS011;5649;52.422;13.754;2023-03-20T10:46:34;19.00;;;6.50;;
11185;SDS011;5649;52.422;13.754;2023-03-20T10:49:51;13.30;;;6.50;;
11185;SDS011;5649;52.422;13.754;2023-03-20T10:51:51;12.73;;;5.60;;
11185;SDS011;5649;52.422;13.754;2023-03-20T10:54:23;21.03;;;5.77;;
11185;SDS011;5649;52.422;13.754;2023-03-20T10:56:51;12.80;;;5.70;;
11185;SDS011;5649;52.422;13.754;2023-03-20T10:59:24;13.13;;;6.00;;
11185;SDS011;5649;52.422;13.754;2023-03-20T11:01:51;13.93;;;6.20;;
11185;SDS011;5649;52.422;13.754;2023-03-20T11:04:17;16.00;;;7.07;;
11185;SDS011;5649;52.422;13.754;2023-03-20T11:09:30;10.67;;;5.97;;
11185;SDS011;5649;52.422;13.754;2023-03-20T11:11:57;17.60;;;6.80;;
11185;SDS011;5649;52.422;13.754;2023-03-20T11:14:31;13.27;;;5.30;;
11185;SDS011;5649;52.422;13.754;2023-03-20T11:16:59;10.17;;;6.00;;
11185;SDS011;5649;52.422;13.754;2023-03-20T11:19:26;9.50;;;5.63;;
11185;SDS011;5649;52.422;13.754;2023-03-20T11:21:53;10.47;;;4.80;;
11185;SDS011;5649;52.422;13.754;2023-03-20T11:27:06;17.07;;;5.90;;
11185;SDS011;5649;52.422;13.754;2023-03-20T11:29:33;7.87;;;4.60;;
11185;SDS011;5649;52.422;13.754;2023-03-20T11:34:41;16.40;;;5.50;;
11185;SDS011;5649;52.422;13.754;2023-03-20T11:37:32;13.60;;;5.40;;
11185;SDS011;5649;52.422;13.754;2023-03-20T11:42:33;7.70;;;4.30;;
11185;SDS011;5649;52.422;13.754;2023-03-20T11:45:02;14.60;;;5.27;;
11185;SDS011;5649;52.422;13.754;2023-03-20T11:47:30;11.67;;;3.70;;
11185;SDS011;5649;52.422;13.754;2023-03-20T11:49:58;8.53;;;3.73;;
11185;SDS011;5649;52.422;13.754;2023-03-20T11:52:30;6.40;;;3.77;;
11185;SDS011;5649;52.422;13.754;2023-03-20T11:54:57;11.50;;;4.57;;
11185;SDS011;5649;52.422;13.754;2023-03-20T11:57:41;10.10;;;4.50;;
11185;SDS011;5649;52.422;13.754;2023-03-20T12:00:16;8.57;;;4.50;;
11185;SDS011;5649;52.422;13.754;2023-03-20T12:02:43;11.50;;;4.70;;
11185;SDS011;5649;52.422;13.754;2023-03-20T12:07:45;10.23;;;5.07;;
11185;SDS011;5649;52.422;13.754;2023-03-20T12:10:13;7.03;;;3.90;;
11185;SDS011;5649;52.422;13.754;2023-03-20T12:12:41;13.43;;;4.27;;
11185;SDS011;5649;52.422;13.754;2023-03-20T12:20:02;4.77;;;3.90;;
11185;SDS011;5649;52.422;13.754;2023-03-20T12:22:52;9.77;;;4.43;;
11185;SDS011;5649;52.422;13.754;2023-03-20T12:25:25;8.03;;;4.00;;
11185;SDS011;5649;52.422;13.754;2023-03-20T12:28:00;13.80;;;4.83;;
11185;SDS011;5649;52.422;13.754;2023-03-20T12:30:48;4.40;;;3.10;;
11185;SDS011;5649;52.422;13.754;2023-03-20T12:33:18;6.73;;;3.27;;
11185;SDS011;5649;52.422;13.754;2023-03-20T12:35:47;10.50;;;4.20;;
11185;SDS011;5649;52.422;13.754;2023-03-20T12:40:44;9.17;;;4.30;;
11185;SDS011;5649;52.422;13.754;2023-03-20T12:43:13;11.97;;;4.53;;
11185;SDS011;5649;52.422;13.754;2023-03-20T12:45:42;8.93;;;3.33;;
11185;SDS011;5649;52.422;13.754;2023-03-20T12:50:58;8.40;;;3.50;;
11185;SDS011;5649;52.422;13.754;2023-03-20T12:53:37;9.83;;;4.53;;
11185;SDS011;5649;52.422;13.754;2023-03-20T12:58:58;10.13;;;4.13;;
11185;SDS011;5649;52.422;13.754;2023-03-20T13:02:14;7.67;;;3.47;;
11185;SDS011;5649;52.422;13.754;2023-03-20T13:06:53;5.07;;;3.37;;
11185;SDS011;5649;52.422;13.754;2023-03-20T13:19:50;8.67;;;3.37;;
11185;SDS011;5649;52.422;13.754;2023-03-20T13:22:22;24.27;;;5.17;;
11185;SDS011;5649;52.422;13.754;2023-03-20T13:24:53;9.20;;;2.93;;
11185;SDS011;5649;52.422;13.754;2023-03-20T13:32:32;10.87;;;4.03;;
11185;SDS011;5649;52.422;13.754;2023-03-20T13:37:47;8.33;;;5.10;;
11185;SDS011;5649;52.422;13.754;2023-03-20T13:45:30;9.20;;;4.37;;
11185;SDS011;5649;52.422;13.754;2023-03-20T13:47:59;8.37;;;4.97;;
11185;SDS011;5649;52.422;13.754;2023-03-20T13:50:33;7.50;;;4.47;;
11185;SDS011;5649;52.422;13.754;2023-03-20T14:03:37;7.17;;;3.87;;
11185;SDS011;5649;52.422;13.754;2023-03-20T14:06:15;9.30;;;4.57;;
11185;SDS011;5649;52.422;13.754;2023-03-20T14:08:42;8.57;;;5.07;;
11185;SDS011;5649;52.422;13.754;2023-03-20T14:11:13;9.00;;;4.30;;
11185;SDS011;5649;52.422;13.754;2023-03-20T14:13:43;12.17;;;5.60;;
11185;SDS011;5649;52.422;13.754;2023-03-20T14:16:12;10.40;;;4.70;;
11185;SDS011;5649;52.422;13.754;2023-03-20T14:18:39;9.90;;;5.07;;
11185;SDS011;5649;52.422;13.754;2023-03-20T14:21:12;9.77;;;4.83;;
11185;SDS011;5649;52.422;13.754;2023-03-20T14:23:42;11.30;;;4.77;;
11185;SDS011;5649;52.422;13.754;2023-03-20T14:26:21;6.70;;;4.13;;
11185;SDS011;5649;52.422;13.754;2023-03-20T14:31:40;12.30;;;5.20;;
11185;SDS011;5649;52.422;13.754;2023-03-20T14:36:57;15.13;;;4.80;;
11185;SDS011;5649;52.422;13.754;2023-03-20T14:39:42;18.77;;;5.20;;
11185;SDS011;5649;52.422;13.754;2023-03-20T14:47:47;13.07;;;4.63;;
11185;SDS011;5649;52.422;13.754;2023-03-20T14:50:19;12.73;;;5.80;;
11185;SDS011;5649;52.422;13.754;2023-03-20T14:57:46;9.00;;;5.40;;
11185;SDS011;5649;52.422;13.754;2023-03-20T15:00:26;8.43;;;5.40;;
11185;SDS011;5649;52.422;13.754;2023-03-20T15:03:04;10.43;;;5.70;;
11185;SDS011;5649;52.422;13.754;2023-03-20T15:05:32;25.53;;;5.80;;
11185;SDS011;5649;52.422;13.754;2023-03-20T15:10:57;16.23;;;6.80;;
11185;SDS011;5649;52.422;13.754;2023-03-20T15:13:25;13.90;;;6.20;;
11185;SDS011;5649;52.422;13.754;2023-03-20T15:15:52;11.00;;;6.17;;
11185;SDS011;5649;52.422;13.754;2023-03-20T15:18:20;18.10;;;6.30;;
11185;SDS011;5649;52.422;13.754;2023-03-20T15:20:47;14.17;;;8.10;;
11185;SDS011;5649;52.422;13.754;2023-03-20T15:23:13;11.90;;;7.03;;
11185;SDS011;5649;52.422;13.754;2023-03-20T15:25:49;20.73;;;7.30;;
11185;SDS011;5649;52.422;13.754;2023-03-20T15:28:22;10.77;;;5.50;;
11185;SDS011;5649;52.422;13.754;2023-03-20T15:30:49;23.23;;;5.40;;
11185;SDS011;5649;52.422;13.754;2023-03-20T15:33:50;8.80;;;4.87;;
11185;SDS011;5649;52.422;13.754;2023-03-20T15:36:12;9.23;;;5.33;;
11185;SDS011;5649;52.422;13.754;2023-03-20T15:38:41;13.97;;;5.77;;
11185;SDS011;5649;52.422;13.754;2023-03-20T15:41:21;11.73;;;6.00;;
11185;SDS011;5649;52.422;13.754;2023-03-20T15:43:49;12.43;;;6.30;;
11185;SDS011;5649;52.422;13.754;2023-03-20T15:46:15;13.77;;;6.43;;
11185;SDS011;5649;52.422;13.754;2023-03-20T15:48:45;18.03;;;7.00;;
11185;SDS011;5649;52.422;13.754;2023-03-20T15:51:12;11.77;;;6.47;;
11185;SDS011;5649;52.422;13.754;2023-03-20T15:53:38;29.60;;;6.67;;
11185;SDS011;5649;52.422;13.754;2023-03-20T15:56:09;11.50;;;5.53;;
11185;SDS011;5649;52.422;13.754;2023-03-20T15:58:36;15.37;;;7.03;;
11185;SDS011;5649;52.422;13.754;2023-03-20T16:01:03;17.77;;;7.23;;
11185;SDS011;5649;52.422;13.754;2023-03-20T16:03:30;19.20;;;9.27;;
11185;SDS011;5649;52.422;13.754;2023-03-20T16:05:59;17.87;;;8.80;;
11185;SDS011;5649;52.422;13.754;2023-03-20T16:08:30;27.07;;;6.67;;
11185;SDS011;5649;52.422;13.754;2023-03-20T16:11:06;18.07;;;6.33;;
11185;SDS011;5649;52.422;13.754;2023-03-20T16:13:39;22.43;;;6.80;;
11185;SDS011;5649;52.422;13.754;2023-03-20T16:16:07;15.30;;;6.60;;
11185;SDS011;5649;52.422;13.754;2023-03-20T16:18:37;21.83;;;7.30;;
11185;SDS011;5649;52.422;13.754;2023-03-20T16:21:04;14.50;;;6.17;;
11185;SDS011;5649;52.422;13.754;2023-03-20T16:23:32;14.43;;;6.20;;
11185;SDS011;5649;52.422;13.754;2023-03-20T16:26:00;15.43;;;6.80;;
11185;SDS011;5649;52.422;13.754;2023-03-20T16:28:27;13.37;;;6.60;;
11185;SDS011;5649;52.422;13.754;2023-03-20T16:30:54;19.80;;;7.30;;
11185;SDS011;5649;52.422;13.754;2023-03-20T16:33:29;14.30;;;6.53;;
11185;SDS011;5649;52.422;13.754;2023-03-20T16:35:55;10.73;;;6.50;;
11185;SDS011;5649;52.422;13.754;2023-03-20T16:41:11;29.37;;;7.93;;
11185;SDS011;5649;52.422;13.754;2023-03-20T16:43:38;17.60;;;6.63;;
11185;SDS011;5649;52.422;13.754;2023-03-20T16:46:04;32.47;;;8.17;;
11185;SDS011;5649;52.422;13.754;2023-03-20T16:48:34;22.80;;;7.80;;
11185;SDS011;5649;52.422;13.754;2023-03-20T16:51:08;17.73;;;7.37;;
11185;SDS011;5649;52.422;13.754;2023-03-20T16:53:45;13.47;;;6.90;;
11185;SDS011;5649;52.422;13.754;2023-03-20T16:56:12;52.57;;;7.90;;
11185;SDS011;5649;52.422;13.754;2023-03-20T16:58:39;22.47;;;7.30;;
11185;SDS011;5649;52.422;13.754;2023-03-20T17:01:06;44.30;;;7.10;;
11185;SDS011;5649;52.422;13.754;2023-03-20T17:03:44;33.97;;;7.43;;
11185;SDS011;5649;52.422;13.754;2023-03-20T17:09:30;13.67;;;5.90;;
11185;SDS011;5649;52.422;13.754;2023-03-20T17:11:34;21.83;;;7.70;;
11185;SDS011;5649;52.422;13.754;2023-03-20T17:14:01;12.83;;;6.40;;
11185;SDS011;5649;52.422;13.754;2023-03-20T17:16:28;17.13;;;7.47;;